Time,TemperatureF,DewpointF,PressureIn,WindDirection,WindDirectionDegrees,WindSpeedMPH,WindSpeedGustMPH,Humidity,HourlyPrecipIn,Conditions,Clouds,dailyrainin,SoftwareType,DateUTC
2013-04-06 00:03:00,46.2,7.4,29.97,North,0,14.1,14.1,20,5.14,,---,0.00,VWS V14.00,2013-04-06 04:03:00,
2013-04-06 00:06:00,46.0,7.2,29.97,North,0,7.6,10.5,20,5.14,,---,0.00,VWS V14.00,2013-04-06 04:06:00,
2013-04-06 00:12:00,45.9,7.1,29.97,North,0,5.6,8.1,20,5.14,,---,0.00,VWS V14.00,2013-04-06 04:12:00,
2013-04-06 00:13:00,45.7,6.9,29.97,North,0,3.4,10.1,20,5.14,,---,0.00,VWS V14.00,2013-04-06 04:13:00,
2013-04-06 00:17:00,45.5,6.8,29.97,NNW,338,10.7,10.7,20,5.14,,---,0.00,VWS V14.00,2013-04-06 04:17:00,
2013-04-06 00:19:00,45.3,6.6,29.97,NNW,338,5.8,9.8,20,5.14,,---,0.00,VWS V14.00,2013-04-06 04:19:00,
2013-04-06 00:20:00,45.3,6.6,29.97,NNW,338,7.4,7.4,20,5.14,,---,0.00,VWS V14.00,2013-04-06 04:20:00,
2013-04-06 00:24:00,45.0,6.3,29.97,NW,315,6.3,11.0,20,5.14,,---,0.00,VWS V14.00,2013-04-06 04:24:00,
2013-04-06 00:27:00,45.0,6.3,29.97,NNW,338,7.8,8.7,20,5.14,,---,0.00,VWS V14.00,2013-04-06 04:27:00,
2013-04-06 00:29:00,44.8,6.2,29.97,North,0,6.0,8.7,20,5.14,,---,0.00,VWS V14.00,2013-04-06 04:29:00,
2013-04-06 00:31:00,44.6,6.0,29.97,NNW,338,4.7,6.0,20,5.14,,---,0.00,VWS V14.00,2013-04-06 04:31:00,
2013-04-06 00:35:00,44.6,6.0,30.00,NNW,338,7.8,13.2,20,5.14,,---,0.00,VWS V14.00,2013-04-06 04:35:00,
2013-04-06 00:38:00,44.6,6.0,30.00,NNW,338,7.2,7.2,20,5.14,,---,0.00,VWS V14.00,2013-04-06 04:38:00,
2013-04-06 00:42:00,44.4,5.9,30.00,NNW,338,10.1,10.5,20,5.14,,---,0.00,VWS V14.00,2013-04-06 04:42:00,
2013-04-06 00:44:00,44.2,5.7,30.00,NW,315,8.1,10.1,20,5.14,,---,0.00,VWS V14.00,2013-04-06 04:44:00,
2013-04-06 00:45:00,44.2,5.7,30.00,NNW,338,5.4,8.1,20,5.14,,---,0.00,VWS V14.00,2013-04-06 04:45:00,
2013-04-06 00:49:00,44.1,5.6,30.00,WNW,292,11.0,11.0,20,5.14,,---,0.00,VWS V14.00,2013-04-06 04:49:00,
2013-04-06 00:50:00,43.9,5.4,30.03,NW,315,2.7,7.2,20,5.14,,---,0.00,VWS V14.00,2013-04-06 04:50:00,
2013-04-06 00:52:00,43.7,5.3,30.03,NNE,22,10.5,10.5,20,5.14,,---,0.00,VWS V14.00,2013-04-06 04:52:00,
2013-04-06 00:55:00,43.9,5.4,30.03,NNW,338,12.3,12.3,20,5.14,,---,0.00,VWS V14.00,2013-04-06 04:55:00,
2013-04-06 00:58:00,43.9,5.4,30.03,NW,315,8.7,11.0,20,5.14,,---,0.00,VWS V14.00,2013-04-06 04:58:00,
2013-04-06 01:01:00,43.7,5.3,30.03,NNW,338,6.5,6.5,20,5.14,,---,0.00,VWS V14.00,2013-04-06 05:01:00,
2013-04-06 01:02:00,43.5,5.1,30.03,North,0,8.5,8.5,20,5.14,,---,0.00,VWS V14.00,2013-04-06 05:02:00,
2013-04-06 01:06:00,43.7,5.3,30.03,North,0,5.8,10.1,20,5.14,,---,0.00,VWS V14.00,2013-04-06 05:06:00,
2013-04-06 01:12:00,43.3,5.0,30.03,NNW,338,3.4,7.6,20,5.14,,---,0.00,VWS V14.00,2013-04-06 05:12:00,
2013-04-06 01:13:00,43.3,5.0,30.03,NNW,338,6.3,8.1,20,5.14,,---,0.00,VWS V14.00,2013-04-06 05:13:00,
2013-04-06 01:16:00,43.2,4.8,30.03,NNW,338,7.2,7.8,20,5.14,,---,0.00,VWS V14.00,2013-04-06 05:16:00,
2013-04-06 01:20:00,43.2,4.8,30.03,NW,315,8.7,10.7,20,5.14,,---,0.00,VWS V14.00,2013-04-06 05:20:00,
2013-04-06 01:22:00,43.0,4.7,30.03,NNW,338,2.9,6.0,20,5.14,,---,0.00,VWS V14.00,2013-04-06 05:22:00,
2013-04-06 01:23:00,43.0,4.7,30.03,North,0,5.6,7.6,20,5.14,,---,0.00,VWS V14.00,2013-04-06 05:23:00,
2013-04-06 01:26:00,42.8,4.5,30.03,North,0,4.9,4.9,20,5.14,,---,0.00,VWS V14.00,2013-04-06 05:26:00,
2013-04-06 01:27:00,42.6,5.4,30.03,NNW,338,3.6,4.9,21,5.14,,---,0.00,VWS V14.00,2013-04-06 05:27:00,
2013-04-06 01:29:00,42.6,5.4,30.03,NNW,338,4.7,7.8,21,5.14,,---,0.00,VWS V14.00,2013-04-06 05:29:00,
2013-04-06 01:31:00,42.4,5.3,30.03,North,0,2.9,5.8,21,5.14,,---,0.00,VWS V14.00,2013-04-06 05:31:00,
2013-04-06 01:36:00,42.3,5.1,30.03,WNW,292,2.7,6.5,21,5.14,,---,0.00,VWS V14.00,2013-04-06 05:36:00,
2013-04-06 01:37:00,42.3,5.1,30.03,WNW,292,4.0,6.3,21,5.14,,---,0.00,VWS V14.00,2013-04-06 05:37:00,
2013-04-06 01:38:00,42.3,5.1,30.03,North,0,5.4,5.4,21,5.14,,---,0.00,VWS V14.00,2013-04-06 05:38:00,
2013-04-06 01:41:00,42.3,5.1,30.03,NNW,338,4.0,6.0,21,5.14,,---,0.00,VWS V14.00,2013-04-06 05:41:00,
2013-04-06 01:42:00,42.3,5.1,30.03,NNW,338,5.8,5.8,21,5.14,,---,0.00,VWS V14.00,2013-04-06 05:42:00,
2013-04-06 01:44:00,42.1,5.0,30.03,NNW,338,5.6,6.0,21,5.14,,---,0.00,VWS V14.00,2013-04-06 05:44:00,
2013-04-06 01:48:00,42.1,5.0,30.03,North,0,4.3,7.2,21,5.14,,---,0.00,VWS V14.00,2013-04-06 05:48:00,
2013-04-06 01:49:00,42.1,5.0,30.00,NW,315,7.2,7.2,21,5.14,,---,0.00,VWS V14.00,2013-04-06 05:49:00,
2013-04-06 01:52:00,42.1,5.0,30.00,NW,315,2.0,6.0,21,5.14,,---,0.00,VWS V14.00,2013-04-06 05:52:00,
2013-04-06 01:54:00,41.9,4.8,30.00,North,0,4.3,5.6,21,5.14,,---,0.00,VWS V14.00,2013-04-06 05:54:00,
2013-04-06 01:56:00,41.9,4.8,30.00,NW,315,3.6,8.7,21,5.14,,---,0.00,VWS V14.00,2013-04-06 05:56:00,
2013-04-06 02:00:00,41.9,4.8,30.00,North,0,6.3,7.8,21,5.14,,---,0.00,VWS V14.00,2013-04-06 06:00:00,
2013-04-06 02:02:00,41.9,4.8,30.00,North,0,9.8,9.8,21,5.14,,---,0.00,VWS V14.00,2013-04-06 06:02:00,
2013-04-06 02:03:00,41.9,4.8,30.00,NNW,338,12.8,12.8,21,5.14,,---,0.00,VWS V14.00,2013-04-06 06:03:00,
2013-04-06 02:08:00,41.9,4.8,30.03,NNW,338,5.6,6.5,21,5.14,,---,0.00,VWS V14.00,2013-04-06 06:08:00,
2013-04-06 02:09:00,41.9,4.8,30.03,NNE,22,10.1,10.7,21,5.14,,---,0.00,VWS V14.00,2013-04-06 06:09:00,
2013-04-06 02:12:00,41.7,4.7,30.03,NNW,338,8.5,8.5,21,5.14,,---,0.00,VWS V14.00,2013-04-06 06:12:00,
2013-04-06 02:15:00,41.7,4.7,30.03,NNW,338,7.8,12.1,21,5.14,,---,0.00,VWS V14.00,2013-04-06 06:15:00,
2013-04-06 02:16:00,41.7,4.7,30.03,NNW,338,6.3,10.7,21,5.14,,---,0.00,VWS V14.00,2013-04-06 06:16:00,
2013-04-06 02:19:00,41.7,4.7,30.03,NNW,338,6.9,9.8,21,5.14,,---,0.00,VWS V14.00,2013-04-06 06:19:00,
2013-04-06 02:22:00,41.5,4.5,30.03,NW,315,5.6,10.7,21,5.14,,---,0.00,VWS V14.00,2013-04-06 06:22:00,
2013-04-06 02:23:00,41.5,4.5,30.03,NNW,338,6.0,10.7,21,5.14,,---,0.00,VWS V14.00,2013-04-06 06:23:00,
2013-04-06 02:24:00,41.5,4.5,30.03,NNW,338,9.6,10.5,21,5.14,,---,0.00,VWS V14.00,2013-04-06 06:24:00,
2013-04-06 02:25:00,41.4,4.4,30.03,NNW,338,8.5,10.3,21,5.14,,---,0.00,VWS V14.00,2013-04-06 06:25:00,
2013-04-06 02:27:00,41.4,4.4,30.03,NNW,338,12.3,12.3,21,5.14,,---,0.00,VWS V14.00,2013-04-06 06:27:00,
2013-04-06 02:30:00,41.4,4.4,30.03,NNE,22,8.7,10.3,21,5.14,,---,0.00,VWS V14.00,2013-04-06 06:30:00,
2013-04-06 02:31:00,41.4,4.4,30.03,NNW,338,4.3,10.3,21,5.14,,---,0.00,VWS V14.00,2013-04-06 06:31:00,
2013-04-06 02:35:00,41.2,4.2,30.06,North,0,5.6,10.3,21,5.14,,---,0.00,VWS V14.00,2013-04-06 06:35:00,
2013-04-06 02:37:00,41.2,4.2,30.06,NNW,338,6.0,11.0,21,5.14,,---,0.00,VWS V14.00,2013-04-06 06:37:00,
2013-04-06 02:40:00,41.2,4.2,30.06,North,0,7.6,10.1,21,5.14,,---,0.00,VWS V14.00,2013-04-06 06:40:00,
2013-04-06 02:43:00,41.2,4.2,30.06,NNE,22,5.8,12.5,21,5.14,,---,0.00,VWS V14.00,2013-04-06 06:43:00,
2013-04-06 02:44:00,41.2,4.2,30.06,NE,45,5.6,7.6,21,5.14,,---,0.00,VWS V14.00,2013-04-06 06:44:00,
2013-04-06 02:48:00,40.8,3.9,30.06,NNE,22,4.9,10.3,21,5.14,,---,0.00,VWS V14.00,2013-04-06 06:48:00,
2013-04-06 02:49:00,40.8,3.9,30.03,NW,315,6.0,6.0,21,5.14,,---,0.00,VWS V14.00,2013-04-06 06:49:00,
2013-04-06 02:55:00,40.8,3.9,30.03,North,0,5.6,12.8,21,5.14,,---,0.00,VWS V14.00,2013-04-06 06:55:00,
2013-04-06 03:01:00,40.6,3.8,30.03,NNW,338,4.9,6.7,21,5.14,,---,0.00,VWS V14.00,2013-04-06 07:01:00,
2013-04-06 03:02:00,40.6,3.8,30.03,NNW,338,6.5,18.8,21,5.14,,---,0.00,VWS V14.00,2013-04-06 07:02:00,
2013-04-06 03:03:00,40.6,3.8,30.03,NW,315,10.1,10.1,21,5.14,,---,0.00,VWS V14.00,2013-04-06 07:03:00,
2013-04-06 03:07:00,40.5,3.6,30.06,North,0,7.4,7.4,21,5.14,,---,0.00,VWS V14.00,2013-04-06 07:07:00,
2013-04-06 03:09:00,40.5,3.6,30.06,North,0,3.6,8.5,21,5.14,,---,0.00,VWS V14.00,2013-04-06 07:09:00,
2013-04-06 03:10:00,40.5,3.6,30.06,North,0,6.0,6.5,21,5.14,,---,0.00,VWS V14.00,2013-04-06 07:10:00,
2013-04-06 03:12:00,40.5,3.6,30.06,NNE,22,3.8,6.3,21,5.14,,---,0.00,VWS V14.00,2013-04-06 07:12:00,
2013-04-06 03:15:00,40.3,3.5,30.06,NNE,22,8.7,8.7,21,5.14,,---,0.00,VWS V14.00,2013-04-06 07:15:00,
2013-04-06 03:16:00,40.3,3.5,30.06,NNW,338,5.8,8.7,21,5.14,,---,0.00,VWS V14.00,2013-04-06 07:16:00,
2013-04-06 03:19:00,40.3,3.5,30.06,NNW,338,4.9,6.3,21,5.14,,---,0.00,VWS V14.00,2013-04-06 07:19:00,
2013-04-06 03:22:00,40.1,3.3,30.06,NW,315,2.7,7.6,21,5.14,,---,0.00,VWS V14.00,2013-04-06 07:22:00,
2013-04-06 03:23:00,40.1,3.3,30.06,NNW,338,6.7,13.4,21,5.14,,---,0.00,VWS V14.00,2013-04-06 07:23:00,
2013-04-06 03:25:00,39.9,3.2,30.06,NNW,338,6.5,7.2,21,5.14,,---,0.00,VWS V14.00,2013-04-06 07:25:00,
2013-04-06 03:28:00,39.9,3.2,30.06,WNW,292,7.6,11.0,21,5.14,,---,0.00,VWS V14.00,2013-04-06 07:28:00,
2013-04-06 03:29:00,39.9,3.2,30.06,NNE,22,4.0,12.3,21,5.14,,---,0.00,VWS V14.00,2013-04-06 07:29:00,
2013-04-06 03:31:00,39.9,3.2,30.06,North,0,5.8,8.7,21,5.14,,---,0.00,VWS V14.00,2013-04-06 07:31:00,
2013-04-06 03:35:00,39.9,3.2,30.06,NNE,22,7.6,9.8,21,5.14,,---,0.00,VWS V14.00,2013-04-06 07:35:00,
2013-04-06 03:36:00,39.9,3.2,30.06,NNW,338,4.3,7.6,21,5.14,,---,0.00,VWS V14.00,2013-04-06 07:36:00,
2013-04-06 03:37:00,39.7,3.0,30.06,NE,45,7.6,8.1,21,5.14,,---,0.00,VWS V14.00,2013-04-06 07:37:00,
2013-04-06 03:40:00,39.7,3.0,30.06,NNW,338,6.7,6.7,21,5.14,,---,0.00,VWS V14.00,2013-04-06 07:40:00,
2013-04-06 03:41:00,39.6,2.9,30.06,NNW,338,4.0,7.2,21,5.14,,---,0.00,VWS V14.00,2013-04-06 07:41:00,
2013-04-06 03:46:00,39.4,2.7,30.06,North,0,3.4,4.9,21,5.14,,---,0.00,VWS V14.00,2013-04-06 07:46:00,
2013-04-06 03:49:00,39.4,2.7,30.06,NNW,338,6.5,6.5,21,5.14,,---,0.00,VWS V14.00,2013-04-06 07:49:00,
2013-04-06 03:52:00,39.2,2.6,30.06,NNW,338,5.8,8.1,21,5.14,,---,0.00,VWS V14.00,2013-04-06 07:52:00,
2013-04-06 03:54:00,39.2,2.6,30.06,North,0,7.2,7.2,21,5.14,,---,0.00,VWS V14.00,2013-04-06 07:54:00,
2013-04-06 03:55:00,39.2,2.6,30.06,North,0,3.8,7.2,21,5.14,,---,0.00,VWS V14.00,2013-04-06 07:55:00,
2013-04-06 03:57:00,39.2,2.6,30.06,NNW,338,3.6,10.5,21,5.14,,---,0.00,VWS V14.00,2013-04-06 07:57:00,
2013-04-06 03:59:00,39.0,2.4,30.06,NW,315,5.8,7.4,21,5.14,,---,0.00,VWS V14.00,2013-04-06 07:59:00,
2013-04-06 04:03:00,38.8,2.3,30.06,NNW,338,4.0,4.3,21,5.14,,---,0.00,VWS V14.00,2013-04-06 08:03:00,
2013-04-06 04:05:00,38.8,2.3,30.09,NNE,22,6.0,6.3,21,5.14,,---,0.00,VWS V14.00,2013-04-06 08:05:00,
2013-04-06 04:07:00,38.8,2.3,30.09,NNW,338,8.1,9.8,21,5.14,,---,0.00,VWS V14.00,2013-04-06 08:07:00,
2013-04-06 04:09:00,38.8,2.3,30.09,WNW,292,8.7,8.7,21,5.14,,---,0.00,VWS V14.00,2013-04-06 08:09:00,
2013-04-06 04:10:00,38.8,2.3,30.09,NNW,338,11.2,11.2,21,5.14,,---,0.00,VWS V14.00,2013-04-06 08:10:00,
2013-04-06 04:12:00,39.0,2.4,30.09,North,0,5.8,11.0,21,5.14,,---,0.00,VWS V14.00,2013-04-06 08:12:00,
2013-04-06 04:15:00,39.0,2.4,30.09,NNE,22,12.8,12.8,21,5.14,,---,0.00,VWS V14.00,2013-04-06 08:15:00,
2013-04-06 04:17:00,38.8,2.3,30.09,North,0,10.3,12.8,21,5.14,,---,0.00,VWS V14.00,2013-04-06 08:17:00,
2013-04-06 04:18:00,38.8,2.3,30.09,North,0,4.0,10.3,21,5.14,,---,0.00,VWS V14.00,2013-04-06 08:18:00,
2013-04-06 04:21:00,38.8,2.3,30.09,NNW,338,5.6,13.0,21,5.14,,---,0.00,VWS V14.00,2013-04-06 08:21:00,
2013-04-06 04:25:00,38.7,2.1,30.09,North,0,4.3,7.6,21,5.14,,---,0.00,VWS V14.00,2013-04-06 08:25:00,
2013-04-06 04:27:00,38.7,2.1,30.09,NNE,22,4.0,4.0,21,5.14,,---,0.00,VWS V14.00,2013-04-06 08:27:00,
2013-04-06 04:31:00,38.7,2.1,30.09,NW,315,10.3,10.3,21,5.14,,---,0.00,VWS V14.00,2013-04-06 08:31:00,
2013-04-06 04:32:00,38.7,2.1,30.09,NW,315,6.9,8.7,21,5.14,,---,0.00,VWS V14.00,2013-04-06 08:32:00,
2013-04-06 04:36:00,38.7,2.1,30.09,NNW,338,7.6,10.3,21,5.14,,---,0.00,VWS V14.00,2013-04-06 08:36:00,
2013-04-06 04:39:00,38.7,2.1,30.09,NNW,338,6.5,10.3,21,5.14,,---,0.00,VWS V14.00,2013-04-06 08:39:00,
2013-04-06 04:41:00,38.7,2.1,30.09,North,0,5.8,10.5,21,5.14,,---,0.00,VWS V14.00,2013-04-06 08:41:00,
2013-04-06 04:43:00,38.7,2.1,30.09,NNW,338,8.1,8.1,21,5.14,,---,0.00,VWS V14.00,2013-04-06 08:43:00,
2013-04-06 04:46:00,38.5,2.0,30.09,NNE,22,4.3,7.6,21,5.14,,---,0.00,VWS V14.00,2013-04-06 08:46:00,
2013-04-06 04:49:00,38.5,2.0,30.09,NNW,338,5.8,9.6,21,5.14,,---,0.00,VWS V14.00,2013-04-06 08:49:00,
2013-04-06 04:54:00,38.5,2.0,30.09,North,0,5.4,7.8,21,5.14,,---,0.00,VWS V14.00,2013-04-06 08:54:00,
2013-04-06 04:56:00,38.3,1.8,30.09,NNW,338,8.7,8.7,21,5.14,,---,0.00,VWS V14.00,2013-04-06 08:56:00,
2013-04-06 04:58:00,38.3,1.8,30.09,NNW,338,7.6,7.8,21,5.14,,---,0.00,VWS V14.00,2013-04-06 08:58:00,
2013-04-06 05:01:00,38.3,1.8,30.09,North,0,6.5,6.5,21,5.14,,---,0.00,VWS V14.00,2013-04-06 09:01:00,
2013-04-06 05:04:00,38.3,1.8,30.09,NW,315,8.7,8.7,21,5.14,,---,0.00,VWS V14.00,2013-04-06 09:04:00,
2013-04-06 05:10:00,38.1,1.6,30.09,NNW,338,7.4,7.4,21,5.14,,---,0.00,VWS V14.00,2013-04-06 09:10:00,
2013-04-06 05:15:00,38.1,1.6,30.09,NNW,338,4.7,8.1,21,5.14,,---,0.00,VWS V14.00,2013-04-06 09:15:00,
2013-04-06 05:20:00,37.9,1.5,30.12,NNW,338,5.8,5.8,21,5.14,,---,0.00,VWS V14.00,2013-04-06 09:20:00,
2013-04-06 05:21:00,37.9,1.5,30.12,NNW,338,5.6,7.4,21,5.14,,---,0.00,VWS V14.00,2013-04-06 09:21:00,
2013-04-06 05:25:00,37.8,1.4,30.12,NNW,338,6.9,10.1,21,5.14,,---,0.00,VWS V14.00,2013-04-06 09:25:00,
2013-04-06 05:26:00,37.8,1.4,30.12,NNW,338,7.4,8.7,21,5.14,,---,0.00,VWS V14.00,2013-04-06 09:26:00,
2013-04-06 05:30:00,37.8,1.4,30.12,NNW,338,5.6,10.3,21,5.14,,---,0.00,VWS V14.00,2013-04-06 09:30:00,
2013-04-06 05:31:00,37.8,1.4,30.12,North,0,13.2,14.5,21,5.14,,---,0.00,VWS V14.00,2013-04-06 09:31:00,
2013-04-06 05:33:00,37.8,1.4,30.12,NNW,338,7.4,13.2,21,5.14,,---,0.00,VWS V14.00,2013-04-06 09:33:00,
2013-04-06 05:38:00,37.8,1.4,30.12,NNE,22,10.3,13.0,21,5.14,,---,0.00,VWS V14.00,2013-04-06 09:38:00,
2013-04-06 05:39:00,37.6,1.2,30.12,NNW,338,7.8,10.7,21,5.14,,---,0.00,VWS V14.00,2013-04-06 09:39:00,
2013-04-06 05:41:00,37.6,1.2,30.12,NNW,338,7.6,7.6,21,5.14,,---,0.00,VWS V14.00,2013-04-06 09:41:00,
2013-04-06 05:45:00,37.6,1.2,30.12,NNE,22,14.3,17.7,21,5.14,,---,0.00,VWS V14.00,2013-04-06 09:45:00,
2013-04-06 05:50:00,37.6,1.2,30.15,NNW,338,10.5,12.5,21,5.14,,---,0.00,VWS V14.00,2013-04-06 09:50:00,
2013-04-06 05:51:00,37.6,1.2,30.15,NNW,338,10.7,10.7,21,5.14,,---,0.00,VWS V14.00,2013-04-06 09:51:00,
2013-04-06 05:53:00,37.6,1.2,30.15,NNW,338,6.3,10.1,21,5.14,,---,0.00,VWS V14.00,2013-04-06 09:53:00,
2013-04-06 05:56:00,37.4,1.0,30.15,North,0,8.7,16.1,21,5.14,,---,0.00,VWS V14.00,2013-04-06 09:56:00,
2013-04-06 06:02:00,37.4,1.0,30.15,NNW,338,6.7,15.4,21,5.14,,---,0.00,VWS V14.00,2013-04-06 10:02:00,
2013-04-06 06:04:00,37.4,1.0,30.15,NNW,338,6.5,12.5,21,5.14,,---,0.00,VWS V14.00,2013-04-06 10:04:00,
2013-04-06 06:07:00,37.2,1.9,30.15,NNE,22,12.3,13.0,22,5.14,,---,0.00,VWS V14.00,2013-04-06 10:07:00,
2013-04-06 06:08:00,37.2,1.9,30.15,North,0,4.3,12.3,22,5.14,,---,0.00,VWS V14.00,2013-04-06 10:08:00,
2013-04-06 06:09:00,37.2,1.9,30.15,NNW,338,8.7,8.7,22,5.14,,---,0.00,VWS V14.00,2013-04-06 10:09:00,
2013-04-06 06:13:00,37.0,1.7,30.15,NNE,22,8.1,8.1,22,5.14,,---,0.00,VWS V14.00,2013-04-06 10:13:00,
2013-04-06 06:14:00,37.0,1.7,30.15,NNW,338,3.6,13.2,22,5.14,,---,0.00,VWS V14.00,2013-04-06 10:14:00,
2013-04-06 06:20:00,37.0,1.7,30.15,North,0,5.6,9.8,22,5.14,,---,0.00,VWS V14.00,2013-04-06 10:20:00,
2013-04-06 06:21:00,37.0,1.7,30.15,NNW,338,4.9,11.4,22,5.14,,---,0.00,VWS V14.00,2013-04-06 10:21:00,
2013-04-06 06:27:00,36.9,1.6,30.15,NNW,338,9.8,12.8,22,5.14,,---,0.00,VWS V14.00,2013-04-06 10:27:00,
2013-04-06 06:32:00,36.9,1.6,30.15,NNE,22,4.3,7.4,22,5.14,,---,0.00,VWS V14.00,2013-04-06 10:32:00,
2013-04-06 06:34:00,36.7,1.4,30.18,NNW,338,7.2,7.2,22,5.14,,---,0.00,VWS V14.00,2013-04-06 10:34:00,
2013-04-06 06:36:00,36.7,1.4,30.18,North,0,11.0,11.0,22,5.14,,---,0.00,VWS V14.00,2013-04-06 10:36:00,
2013-04-06 06:39:00,36.7,1.4,30.18,NNW,338,2.7,6.5,22,5.14,,---,0.00,VWS V14.00,2013-04-06 10:39:00,
2013-04-06 06:42:00,36.7,1.4,30.18,NNW,338,3.4,5.6,22,5.14,,---,0.00,VWS V14.00,2013-04-06 10:42:00,
2013-04-06 06:45:00,36.7,1.4,30.18,West,270,8.1,8.1,22,5.14,,---,0.00,VWS V14.00,2013-04-06 10:45:00,
2013-04-06 06:49:00,36.9,1.6,30.18,NNW,338,5.6,8.5,22,5.14,,---,0.00,VWS V14.00,2013-04-06 10:49:00,
2013-04-06 06:55:00,36.9,1.6,30.18,North,0,6.5,6.5,22,5.14,,---,0.00,VWS V14.00,2013-04-06 10:55:00,
2013-04-06 06:56:00,36.9,1.6,30.18,North,0,3.6,6.5,22,5.14,,---,0.00,VWS V14.00,2013-04-06 10:56:00,
2013-04-06 06:57:00,37.0,1.7,30.18,North,0,10.7,10.7,22,5.14,,---,0.00,VWS V14.00,2013-04-06 10:57:00,
2013-04-06 07:00:00,37.4,1.0,30.18,North,0,6.3,10.7,21,5.14,,---,0.00,VWS V14.00,2013-04-06 11:00:00,
2013-04-06 07:01:00,37.6,1.2,30.18,NNE,22,6.9,12.5,21,5.14,,---,0.00,VWS V14.00,2013-04-06 11:01:00,
2013-04-06 07:02:00,37.6,1.2,30.18,NNE,22,4.9,6.9,21,5.14,,---,0.00,VWS V14.00,2013-04-06 11:02:00,
2013-04-06 07:06:00,37.9,1.5,30.21,NNW,338,7.2,7.2,21,5.14,,---,0.00,VWS V14.00,2013-04-06 11:06:00,
2013-04-06 07:07:00,38.1,1.6,30.21,NNE,22,5.6,5.6,21,5.14,,---,0.00,VWS V14.00,2013-04-06 11:07:00,
2013-04-06 07:10:00,38.3,1.8,30.21,North,0,4.0,6.5,21,5.14,,---,0.00,VWS V14.00,2013-04-06 11:10:00,
2013-04-06 07:12:00,38.5,2.0,30.21,North,0,3.8,8.5,21,5.14,,---,0.00,VWS V14.00,2013-04-06 11:12:00,
2013-04-06 07:14:00,38.5,2.0,30.21,North,0,11.0,11.0,21,5.14,,---,0.00,VWS V14.00,2013-04-06 11:14:00,
2013-04-06 07:17:00,38.5,2.0,30.21,NNE,22,5.4,8.1,21,5.14,,---,0.00,VWS V14.00,2013-04-06 11:17:00,
2013-04-06 07:20:00,38.7,2.1,30.21,NNE,22,5.4,6.3,21,5.14,,---,0.00,VWS V14.00,2013-04-06 11:20:00,
2013-04-06 07:22:00,38.8,2.3,30.21,NNW,338,4.3,7.8,21,5.14,,---,0.00,VWS V14.00,2013-04-06 11:22:00,
2013-04-06 07:24:00,39.0,2.4,30.21,North,0,6.3,6.7,21,5.14,,---,0.00,VWS V14.00,2013-04-06 11:24:00,
2013-04-06 07:26:00,38.8,2.3,30.21,North,0,12.8,12.8,21,5.14,,---,0.00,VWS V14.00,2013-04-06 11:26:00,
2013-04-06 07:27:00,39.2,2.6,30.21,North,0,8.7,8.7,21,5.14,,---,0.00,VWS V14.00,2013-04-06 11:27:00,
2013-04-06 07:31:00,39.6,2.9,30.21,NW,315,10.1,10.1,21,5.14,,---,0.00,VWS V14.00,2013-04-06 11:31:00,
2013-04-06 07:32:00,39.2,2.6,30.21,NNE,22,5.4,7.8,21,5.14,,---,0.00,VWS V14.00,2013-04-06 11:32:00,
2013-04-06 07:35:00,39.4,2.7,30.21,NNE,22,7.8,10.7,21,5.14,,---,0.00,VWS V14.00,2013-04-06 11:35:00,
2013-04-06 07:40:00,39.6,2.9,30.21,NW,315,7.6,12.8,21,5.14,,---,0.00,VWS V14.00,2013-04-06 11:40:00,
2013-04-06 07:41:00,39.6,2.9,30.21,NNW,338,3.4,8.7,21,5.14,,---,0.00,VWS V14.00,2013-04-06 11:41:00,
2013-04-06 07:46:00,40.5,3.6,30.21,North,0,5.4,5.4,21,5.14,,---,0.00,VWS V14.00,2013-04-06 11:46:00,
2013-04-06 07:47:00,40.6,3.8,30.21,NNW,338,7.4,7.4,21,5.14,,---,0.00,VWS V14.00,2013-04-06 11:47:00,
2013-04-06 07:48:00,40.5,3.6,30.21,NNE,22,8.1,13.4,21,5.14,,---,0.00,VWS V14.00,2013-04-06 11:48:00,
2013-04-06 07:51:00,40.3,3.5,30.21,North,0,3.6,9.8,21,5.14,,---,0.00,VWS V14.00,2013-04-06 11:51:00,
2013-04-06 07:55:00,40.5,3.6,30.21,NW,315,5.8,8.1,21,5.14,,---,0.00,VWS V14.00,2013-04-06 11:55:00,
2013-04-06 07:56:00,40.5,3.6,30.21,NNW,338,7.6,8.5,21,5.14,,---,0.00,VWS V14.00,2013-04-06 11:56:00,
2013-04-06 07:58:00,40.5,3.6,30.21,North,0,10.7,10.7,21,5.14,,---,0.00,VWS V14.00,2013-04-06 11:58:00,
2013-04-06 08:00:00,40.3,3.5,30.21,NNE,22,5.4,9.8,21,5.14,,---,0.00,VWS V14.00,2013-04-06 12:00:00,
2013-04-06 08:03:00,40.5,3.6,30.21,NNW,338,11.0,11.9,21,5.14,,---,0.00,VWS V14.00,2013-04-06 12:03:00,
2013-04-06 08:04:00,40.5,3.6,30.21,NNE,22,6.3,12.3,21,5.14,,---,0.00,VWS V14.00,2013-04-06 12:04:00,
2013-04-06 08:09:00,41.0,4.1,30.21,NNW,338,5.4,8.7,21,5.14,,---,0.00,VWS V14.00,2013-04-06 12:09:00,
2013-04-06 08:11:00,41.2,4.2,30.21,NNW,338,3.1,5.8,21,5.14,,---,0.00,VWS V14.00,2013-04-06 12:11:00,
2013-04-06 08:13:00,41.7,4.7,30.21,North,0,3.6,6.0,21,5.14,,---,0.00,VWS V14.00,2013-04-06 12:13:00,
2013-04-06 08:19:00,41.9,4.8,30.21,North,0,4.3,6.5,21,5.14,,---,0.00,VWS V14.00,2013-04-06 12:19:00,
2013-04-06 08:22:00,41.5,4.5,30.24,North,0,7.8,13.2,21,5.14,,---,0.00,VWS V14.00,2013-04-06 12:22:00,
2013-04-06 08:26:00,41.9,4.8,30.24,North,0,11.0,11.0,21,5.14,,---,0.00,VWS V14.00,2013-04-06 12:26:00,
2013-04-06 08:28:00,41.7,4.7,30.24,North,0,7.4,12.1,21,5.14,,---,0.00,VWS V14.00,2013-04-06 12:28:00,
2013-04-06 08:33:00,42.1,5.0,30.24,NNW,338,7.2,7.4,21,5.14,,---,0.00,VWS V14.00,2013-04-06 12:33:00,
2013-04-06 08:37:00,42.4,5.3,30.27,NNW,338,5.6,11.9,21,5.14,,---,0.00,VWS V14.00,2013-04-06 12:37:00,
2013-04-06 08:38:00,42.6,5.4,30.27,NNE,22,7.4,7.8,21,5.14,,---,0.00,VWS V14.00,2013-04-06 12:38:00,
2013-04-06 08:40:00,42.6,5.4,30.27,NNW,338,7.4,7.8,21,5.14,,---,0.00,VWS V14.00,2013-04-06 12:40:00,
2013-04-06 08:43:00,43.0,4.7,30.27,NNW,338,4.0,8.1,20,5.14,,---,0.00,VWS V14.00,2013-04-06 12:43:00,
2013-04-06 08:48:00,43.0,4.7,30.27,NNW,338,3.4,10.5,20,5.14,,---,0.00,VWS V14.00,2013-04-06 12:48:00,
2013-04-06 08:49:00,43.5,5.1,30.27,North,0,8.1,8.1,20,5.14,,---,0.00,VWS V14.00,2013-04-06 12:49:00,
2013-04-06 08:51:00,43.9,5.4,30.27,NNE,22,5.8,8.1,20,5.14,,---,0.00,VWS V14.00,2013-04-06 12:51:00,
2013-04-06 08:57:00,44.1,5.6,30.27,North,0,5.8,7.4,20,5.14,,---,0.00,VWS V14.00,2013-04-06 12:57:00,
2013-04-06 08:59:00,44.4,5.9,30.27,North,0,5.4,6.5,20,5.14,,---,0.00,VWS V14.00,2013-04-06 12:59:00,
2013-04-06 09:02:00,44.6,6.0,30.27,NNE,22,5.6,7.2,20,5.14,,---,0.00,VWS V14.00,2013-04-06 13:02:00,
2013-04-06 09:04:00,44.4,5.9,30.27,North,0,5.6,7.6,20,5.14,,---,0.00,VWS V14.00,2013-04-06 13:04:00,
2013-04-06 09:05:00,44.6,6.0,30.27,North,0,6.0,7.6,20,5.14,,---,0.00,VWS V14.00,2013-04-06 13:05:00,
2013-04-06 09:10:00,44.2,5.7,30.27,NW,315,3.8,10.5,20,5.14,,---,0.00,VWS V14.00,2013-04-06 13:10:00,
2013-04-06 09:12:00,44.8,6.2,30.27,North,0,7.6,12.5,20,5.14,,---,0.00,VWS V14.00,2013-04-06 13:12:00,
2013-04-06 09:14:00,45.0,6.3,30.27,NNE,22,4.9,8.1,20,5.14,,---,0.00,VWS V14.00,2013-04-06 13:14:00,
2013-04-06 09:19:00,45.1,6.5,30.27,NW,315,5.6,6.0,20,5.14,,---,0.00,VWS V14.00,2013-04-06 13:19:00,
2013-04-06 09:20:00,45.5,6.8,30.27,North,0,3.8,5.8,20,5.14,,---,0.00,VWS V14.00,2013-04-06 13:20:00,
2013-04-06 09:23:00,46.0,7.2,30.27,NNE,22,4.0,6.3,20,5.14,,---,0.00,VWS V14.00,2013-04-06 13:23:00,
2013-04-06 09:24:00,46.2,7.4,30.27,NNW,338,5.4,8.1,20,5.14,,---,0.00,VWS V14.00,2013-04-06 13:24:00,
2013-04-06 09:27:00,46.2,7.4,30.27,NNE,22,4.9,8.7,20,5.14,,---,0.00,VWS V14.00,2013-04-06 13:27:00,
2013-04-06 09:30:00,45.9,7.1,30.27,NNW,338,5.8,8.5,20,5.14,,---,0.00,VWS V14.00,2013-04-06 13:30:00,
2013-04-06 09:32:00,46.0,7.2,30.27,NNE,22,3.4,7.8,20,5.14,,---,0.00,VWS V14.00,2013-04-06 13:32:00,
2013-04-06 09:37:00,46.0,7.2,30.27,North,0,5.4,10.7,20,5.14,,---,0.00,VWS V14.00,2013-04-06 13:37:00,
2013-04-06 09:39:00,45.9,7.1,30.27,NNE,22,7.8,11.0,20,5.14,,---,0.00,VWS V14.00,2013-04-06 13:39:00,
2013-04-06 09:43:00,45.7,6.9,30.27,North,0,5.6,9.6,20,5.14,,---,0.00,VWS V14.00,2013-04-06 13:43:00,
2013-04-06 09:47:00,46.4,6.4,30.27,NNE,22,6.3,8.7,19,5.14,,---,0.00,VWS V14.00,2013-04-06 13:47:00,
2013-04-06 09:51:00,46.8,6.7,30.27,North,0,8.1,8.1,19,5.14,,---,0.00,VWS V14.00,2013-04-06 13:51:00,
2013-04-06 09:53:00,46.4,6.4,30.27,North,0,3.6,9.0,19,5.14,,---,0.00,VWS V14.00,2013-04-06 13:53:00,
2013-04-06 09:54:00,46.2,7.4,30.27,NNW,338,5.6,8.5,20,5.14,,---,0.00,VWS V14.00,2013-04-06 13:54:00,
2013-04-06 09:58:00,46.8,6.7,30.27,North,0,6.5,9.8,19,5.14,,---,0.00,VWS V14.00,2013-04-06 13:58:00,
2013-04-06 09:59:00,46.4,6.4,30.27,North,0,9.8,9.8,19,5.14,,---,0.00,VWS V14.00,2013-04-06 13:59:00,
2013-04-06 10:00:00,46.8,6.7,30.27,North,0,7.6,9.8,19,5.14,,---,0.00,VWS V14.00,2013-04-06 14:00:00,
2013-04-06 10:06:00,47.1,7.0,30.27,NE,45,3.8,6.3,19,5.14,,---,0.00,VWS V14.00,2013-04-06 14:06:00,
2013-04-06 10:08:00,47.1,7.0,30.27,North,0,5.4,8.5,19,5.14,,---,0.00,VWS V14.00,2013-04-06 14:08:00,
2013-04-06 10:09:00,47.3,7.1,30.27,NNE,22,8.5,12.5,19,5.14,,---,0.00,VWS V14.00,2013-04-06 14:09:00,
2013-04-06 10:12:00,47.7,7.4,30.27,NNE,22,5.4,12.1,19,5.14,,---,0.00,VWS V14.00,2013-04-06 14:12:00,
2013-04-06 10:15:00,47.5,7.3,30.27,NNW,338,6.3,9.8,19,5.14,,---,0.00,VWS V14.00,2013-04-06 14:15:00,
2013-04-06 10:18:00,48.0,7.7,30.27,NNW,338,4.9,6.7,19,5.14,,---,0.00,VWS V14.00,2013-04-06 14:18:00,
2013-04-06 10:21:00,48.6,8.2,30.27,NE,45,8.7,10.3,19,5.14,,---,0.00,VWS V14.00,2013-04-06 14:21:00,
2013-04-06 10:22:00,48.0,7.7,30.27,NNE,22,6.0,11.0,19,5.14,,---,0.00,VWS V14.00,2013-04-06 14:22:00,
2013-04-06 10:23:00,48.2,7.9,30.27,NNE,22,6.3,10.7,19,5.14,,---,0.00,VWS V14.00,2013-04-06 14:23:00,
2013-04-06 10:26:00,47.8,7.6,30.27,NNE,22,5.6,10.5,19,5.14,,---,0.00,VWS V14.00,2013-04-06 14:26:00,
2013-04-06 10:30:00,48.4,8.0,30.27,NNE,22,5.4,8.5,19,5.14,,---,0.00,VWS V14.00,2013-04-06 14:30:00,
2013-04-06 10:32:00,48.7,8.3,30.27,North,0,5.6,5.6,19,5.14,,---,0.00,VWS V14.00,2013-04-06 14:32:00,
2013-04-06 10:33:00,49.3,8.8,30.27,NNW,338,2.9,5.6,19,5.14,,---,0.00,VWS V14.00,2013-04-06 14:33:00,
2013-04-06 10:37:00,50.2,9.5,30.27,NNW,338,6.5,8.5,19,5.14,,---,0.00,VWS V14.00,2013-04-06 14:37:00,
2013-04-06 10:38:00,50.2,9.5,30.27,NNW,338,5.4,7.2,19,5.14,,---,0.00,VWS V14.00,2013-04-06 14:38:00,
2013-04-06 10:39:00,50.4,9.7,30.27,NNE,22,4.5,5.6,19,5.14,,---,0.00,VWS V14.00,2013-04-06 14:39:00,
2013-04-06 10:41:00,49.3,8.8,30.27,NNE,22,10.5,12.1,19,5.14,,---,0.00,VWS V14.00,2013-04-06 14:41:00,
2013-04-06 10:43:00,49.1,8.6,30.27,NE,45,6.3,8.1,19,5.14,,---,0.00,VWS V14.00,2013-04-06 14:43:00,
2013-04-06 10:47:00,49.8,9.2,30.27,NNW,338,4.7,6.3,19,5.14,,---,0.00,VWS V14.00,2013-04-06 14:47:00,
2013-04-06 10:49:00,50.4,9.7,30.27,NNW,338,5.6,5.6,19,5.14,,---,0.00,VWS V14.00,2013-04-06 14:49:00,
2013-04-06 10:52:00,50.4,9.7,30.27,NNW,338,4.3,7.4,19,5.14,,---,0.00,VWS V14.00,2013-04-06 14:52:00,
2013-04-06 10:54:00,50.2,9.5,30.27,NNE,22,8.1,10.1,19,5.14,,---,0.00,VWS V14.00,2013-04-06 14:54:00,
2013-04-06 10:56:00,50.7,10.0,30.27,NNW,338,4.0,8.1,19,5.14,,---,0.00,VWS V14.00,2013-04-06 14:56:00,
2013-04-06 10:59:00,51.4,10.6,30.27,NNE,22,4.3,7.4,19,5.14,,---,0.00,VWS V14.00,2013-04-06 14:59:00,
2013-04-06 11:01:00,51.6,10.7,30.27,NNE,22,3.1,6.0,19,5.14,,---,0.00,VWS V14.00,2013-04-06 15:01:00,
2013-04-06 11:04:00,51.6,10.7,30.27,North,0,3.6,7.4,19,5.14,,---,0.00,VWS V14.00,2013-04-06 15:04:00,
2013-04-06 11:07:00,51.1,10.3,30.27,North,0,5.6,5.8,19,5.14,,---,0.00,VWS V14.00,2013-04-06 15:07:00,
2013-04-06 11:09:00,51.3,10.4,30.27,NNW,338,5.8,8.1,19,5.14,,---,0.00,VWS V14.00,2013-04-06 15:09:00,
2013-04-06 11:12:00,50.2,9.5,30.27,North,0,5.4,7.4,19,5.14,,---,0.00,VWS V14.00,2013-04-06 15:12:00,
2013-04-06 11:14:00,50.4,9.7,30.27,NNE,22,6.5,8.1,19,5.14,,---,0.00,VWS V14.00,2013-04-06 15:14:00,
2013-04-06 11:16:00,51.3,10.4,30.27,NNE,22,2.9,6.0,19,5.14,,---,0.00,VWS V14.00,2013-04-06 15:16:00,
2013-04-06 11:21:00,51.3,10.4,30.30,ESE,112,8.1,10.5,19,5.14,,---,0.00,VWS V14.00,2013-04-06 15:21:00,
2013-04-06 11:22:00,50.5,9.8,30.30,NE,45,5.8,10.5,19,5.14,,---,0.00,VWS V14.00,2013-04-06 15:22:00,
2013-04-06 11:23:00,50.9,10.1,30.30,NNE,22,6.5,6.5,19,5.14,,---,0.00,VWS V14.00,2013-04-06 15:23:00,
2013-04-06 11:28:00,51.6,10.7,30.30,NNE,22,4.9,7.4,19,5.14,,---,0.00,VWS V14.00,2013-04-06 15:28:00,
2013-04-06 11:29:00,51.4,10.6,30.30,NNE,22,3.1,7.4,19,5.14,,---,0.00,VWS V14.00,2013-04-06 15:29:00,
2013-04-06 11:30:00,51.8,9.7,30.30,NE,45,5.6,6.5,18,5.14,,---,0.00,VWS V14.00,2013-04-06 15:30:00,
2013-04-06 11:35:00,50.5,9.8,30.27,NE,45,10.1,12.8,19,5.14,,---,0.00,VWS V14.00,2013-04-06 15:35:00,
2013-04-06 11:36:00,50.7,10.0,30.27,NNE,22,2.5,7.2,19,5.14,,---,0.00,VWS V14.00,2013-04-06 15:36:00,
2013-04-06 11:40:00,52.0,9.8,30.27,NNW,338,4.7,8.7,18,5.14,,---,0.00,VWS V14.00,2013-04-06 15:40:00,
2013-04-06 11:42:00,52.3,10.1,30.27,NNW,338,4.9,4.9,18,5.14,,---,0.00,VWS V14.00,2013-04-06 15:42:00,
2013-04-06 11:43:00,52.5,10.2,30.27,NNE,22,4.7,5.8,18,5.14,,---,0.00,VWS V14.00,2013-04-06 15:43:00,
2013-04-06 11:44:00,52.7,10.4,30.27,NNE,22,8.1,8.1,18,5.14,,---,0.00,VWS V14.00,2013-04-06 15:44:00,
2013-04-06 11:49:00,51.3,10.4,30.27,NE,45,6.5,8.1,19,5.14,,---,0.00,VWS V14.00,2013-04-06 15:49:00,
2013-04-06 11:50:00,52.0,9.8,30.30,North,0,5.8,9.6,18,5.14,,---,0.00,VWS V14.00,2013-04-06 15:50:00,
2013-04-06 11:52:00,51.6,10.7,30.30,NNE,22,6.5,6.5,19,5.14,,---,0.00,VWS V14.00,2013-04-06 15:52:00,
2013-04-06 11:54:00,52.2,10.0,30.30,NE,45,2.9,6.5,18,5.14,,---,0.00,VWS V14.00,2013-04-06 15:54:00,
2013-04-06 11:57:00,52.3,10.1,30.30,NE,45,3.8,3.8,18,5.14,,---,0.00,VWS V14.00,2013-04-06 15:57:00,
2013-04-06 11:59:00,52.0,9.8,30.30,ENE,68,9.6,9.6,18,5.14,,---,0.00,VWS V14.00,2013-04-06 15:59:00,
2013-04-06 12:01:00,50.7,10.0,30.30,NE,45,6.3,7.8,19,5.14,,---,0.00,VWS V14.00,2013-04-06 16:01:00,
2013-04-06 12:06:00,49.8,9.2,30.30,ENE,68,7.6,7.6,19,5.14,,---,0.00,VWS V14.00,2013-04-06 16:06:00,
2013-04-06 12:07:00,49.6,9.1,30.30,ENE,68,7.6,7.6,19,5.14,,---,0.00,VWS V14.00,2013-04-06 16:07:00,
2013-04-06 12:10:00,48.4,8.0,30.30,ENE,68,6.0,12.8,19,5.14,,---,0.00,VWS V14.00,2013-04-06 16:10:00,
2013-04-06 12:13:00,48.4,8.0,30.30,ENE,68,6.7,8.7,19,5.14,,---,0.00,VWS V14.00,2013-04-06 16:13:00,
2013-04-06 12:14:00,48.4,8.0,30.30,ENE,68,5.8,8.5,19,5.14,,---,0.00,VWS V14.00,2013-04-06 16:14:00,
2013-04-06 12:15:00,48.4,8.0,30.30,NE,45,6.0,7.2,19,5.14,,---,0.00,VWS V14.00,2013-04-06 16:15:00,
2013-04-06 12:20:00,48.0,7.7,30.30,ENE,68,5.4,11.9,19,5.14,,---,0.00,VWS V14.00,2013-04-06 16:20:00,
2013-04-06 12:22:00,47.3,7.1,30.30,ENE,68,8.1,13.2,19,5.14,,---,0.00,VWS V14.00,2013-04-06 16:22:00,
2013-04-06 12:25:00,47.3,7.1,30.30,NE,45,7.6,10.5,19,5.14,,---,0.00,VWS V14.00,2013-04-06 16:25:00,
2013-04-06 12:27:00,47.1,7.0,30.30,ENE,68,5.4,12.1,19,5.14,,---,0.00,VWS V14.00,2013-04-06 16:27:00,
2013-04-06 12:29:00,46.8,6.7,30.30,NNE,22,5.4,8.5,19,5.14,,---,0.00,VWS V14.00,2013-04-06 16:29:00,
2013-04-06 12:32:00,46.8,6.7,30.30,ESE,112,6.5,10.1,19,5.14,,---,0.00,VWS V14.00,2013-04-06 16:32:00,
2013-04-06 12:35:00,46.8,6.7,30.30,ESE,112,5.6,10.7,19,5.14,,---,0.00,VWS V14.00,2013-04-06 16:35:00,
2013-04-06 12:37:00,46.8,6.7,30.30,ENE,68,8.5,8.5,19,5.14,,---,0.00,VWS V14.00,2013-04-06 16:37:00,
2013-04-06 12:42:00,46.6,6.5,30.30,East,90,11.0,11.0,19,5.14,,---,0.00,VWS V14.00,2013-04-06 16:42:00,
2013-04-06 12:43:00,46.2,7.4,30.30,NE,45,3.8,11.0,20,5.14,,---,0.00,VWS V14.00,2013-04-06 16:43:00,
2013-04-06 12:47:00,47.3,7.1,30.30,ESE,112,4.0,6.3,19,5.14,,---,0.00,VWS V14.00,2013-04-06 16:47:00,
2013-04-06 12:50:00,46.8,6.7,30.30,NE,45,7.8,7.8,19,5.14,,---,0.00,VWS V14.00,2013-04-06 16:50:00,
2013-04-06 12:53:00,46.8,6.7,30.30,SE,135,8.7,8.7,19,5.14,,---,0.00,VWS V14.00,2013-04-06 16:53:00,
2013-04-06 12:57:00,46.9,6.8,30.30,ENE,68,10.1,10.1,19,5.14,,---,0.00,VWS V14.00,2013-04-06 16:57:00,
2013-04-06 13:00:00,46.6,6.5,30.30,ESE,112,10.5,11.2,19,5.14,,---,0.00,VWS V14.00,2013-04-06 17:00:00,
2013-04-06 13:04:00,45.3,6.6,30.30,SE,135,9.8,13.0,20,5.14,,---,0.00,VWS V14.00,2013-04-06 17:04:00,
2013-04-06 13:06:00,45.3,6.6,30.30,SE,135,10.1,10.3,20,5.14,,---,0.00,VWS V14.00,2013-04-06 17:06:00,
2013-04-06 13:10:00,46.2,7.4,30.30,ENE,68,6.0,8.7,20,5.14,,---,0.00,VWS V14.00,2013-04-06 17:10:00,
2013-04-06 13:11:00,45.5,6.8,30.30,SE,135,9.4,12.1,20,5.14,,---,0.00,VWS V14.00,2013-04-06 17:11:00,
2013-04-06 13:13:00,45.5,6.8,30.30,ESE,112,9.8,9.8,20,5.14,,---,0.00,VWS V14.00,2013-04-06 17:13:00,
2013-04-06 13:14:00,45.9,7.1,30.30,ESE,112,3.1,9.8,20,5.14,,---,0.00,VWS V14.00,2013-04-06 17:14:00,
2013-04-06 13:17:00,46.6,6.5,30.30,ESE,112,7.2,7.2,19,5.14,,---,0.00,VWS V14.00,2013-04-06 17:17:00,
2013-04-06 13:20:00,46.0,7.2,30.33,ESE,112,12.8,12.8,20,5.14,,---,0.00,VWS V14.00,2013-04-06 17:20:00,
2013-04-06 13:21:00,45.9,7.1,30.33,ESE,112,6.0,12.8,20,5.14,,---,0.00,VWS V14.00,2013-04-06 17:21:00,
2013-04-06 13:25:00,46.0,7.2,30.33,ENE,68,7.4,7.4,20,5.14,,---,0.00,VWS V14.00,2013-04-06 17:25:00,
2013-04-06 13:27:00,46.4,6.4,30.33,ESE,112,8.5,8.5,19,5.14,,---,0.00,VWS V14.00,2013-04-06 17:27:00,
2013-04-06 13:31:00,45.7,6.9,30.33,SSE,158,9.2,10.1,20,5.14,,---,0.00,VWS V14.00,2013-04-06 17:31:00,
2013-04-06 13:32:00,45.7,6.9,30.33,ENE,68,7.2,9.8,20,5.14,,---,0.00,VWS V14.00,2013-04-06 17:32:00,
2013-04-06 13:35:00,46.6,6.5,30.30,ESE,112,7.6,7.6,19,5.14,,---,0.00,VWS V14.00,2013-04-06 17:35:00,
2013-04-06 13:37:00,46.6,6.5,30.30,SE,135,6.3,9.8,19,5.14,,---,0.00,VWS V14.00,2013-04-06 17:37:00,
2013-04-06 13:39:00,46.0,7.2,30.30,SE,135,5.8,10.3,20,5.14,,---,0.00,VWS V14.00,2013-04-06 17:39:00,
2013-04-06 13:44:00,46.8,6.7,30.30,East,90,10.1,10.1,19,5.14,,---,0.00,VWS V14.00,2013-04-06 17:44:00,
2013-04-06 13:45:00,46.9,6.8,30.30,SSE,158,6.7,6.7,19,5.14,,---,0.00,VWS V14.00,2013-04-06 17:45:00,
2013-04-06 13:49:00,45.7,6.9,30.30,SE,135,9.8,12.5,20,5.14,,---,0.00,VWS V14.00,2013-04-06 17:49:00,
2013-04-06 13:51:00,45.5,6.8,30.30,SE,135,7.4,10.1,20,5.14,,---,0.00,VWS V14.00,2013-04-06 17:51:00,
2013-04-06 13:54:00,45.5,6.8,30.30,SE,135,6.3,8.7,20,5.14,,---,0.00,VWS V14.00,2013-04-06 17:54:00,
2013-04-06 13:56:00,45.9,7.1,30.30,South,180,6.3,7.8,20,5.14,,---,0.00,VWS V14.00,2013-04-06 17:56:00,
2013-04-06 13:59:00,45.3,6.6,30.30,ESE,112,8.7,8.7,20,5.14,,---,0.00,VWS V14.00,2013-04-06 17:59:00,
2013-04-06 14:02:00,45.7,6.9,30.30,ESE,112,8.7,10.5,20,5.14,,---,0.00,VWS V14.00,2013-04-06 18:02:00,
2013-04-06 14:03:00,45.3,6.6,30.30,SE,135,12.1,12.1,20,5.14,,---,0.00,VWS V14.00,2013-04-06 18:03:00,
2013-04-06 14:05:00,45.3,6.6,30.30,ESE,112,9.8,9.8,20,5.14,,---,0.00,VWS V14.00,2013-04-06 18:05:00,
2013-04-06 14:07:00,45.5,6.8,30.30,ESE,112,7.6,10.1,20,5.14,,---,0.00,VWS V14.00,2013-04-06 18:07:00,
2013-04-06 14:09:00,45.9,7.1,30.30,ESE,112,7.8,8.1,20,5.14,,---,0.00,VWS V14.00,2013-04-06 18:09:00,
2013-04-06 14:12:00,45.7,6.9,30.30,ESE,112,6.3,10.3,20,5.14,,---,38.12,VWS V14.00,2013-04-06 18:12:00,
2013-04-06 14:15:00,45.7,6.9,30.30,ESE,112,7.2,7.4,20,5.14,,---,38.12,VWS V14.00,2013-04-06 18:15:00,
2013-04-06 14:17:00,46.0,7.2,30.30,SE,135,9.6,9.6,20,5.14,,---,38.12,VWS V14.00,2013-04-06 18:17:00,
2013-04-06 14:20:00,46.2,7.4,30.30,SE,135,6.0,7.4,20,5.14,,---,38.12,VWS V14.00,2013-04-06 18:20:00,
2013-04-06 14:21:00,46.0,7.2,30.30,ESE,112,8.7,12.1,20,5.14,,---,38.12,VWS V14.00,2013-04-06 18:21:00,
2013-04-06 14:26:00,45.7,6.9,30.30,SE,135,6.3,9.8,20,5.14,,---,38.12,VWS V14.00,2013-04-06 18:26:00,
2013-04-06 14:27:00,45.9,7.1,30.30,ESE,112,5.8,6.7,20,5.14,,---,38.12,VWS V14.00,2013-04-06 18:27:00,
2013-04-06 14:32:00,45.5,6.8,30.30,SE,135,7.6,10.3,20,5.14,,---,38.12,VWS V14.00,2013-04-06 18:32:00,
2013-04-06 14:34:00,45.7,6.9,30.30,ESE,112,4.0,10.1,20,5.14,,---,38.12,VWS V14.00,2013-04-06 18:34:00,
2013-04-06 14:37:00,46.2,7.4,30.30,SSE,158,3.6,5.4,20,5.14,,---,38.12,VWS V14.00,2013-04-06 18:37:00,
2013-04-06 14:40:00,46.6,6.5,30.30,ESE,112,7.4,9.6,19,5.14,,---,38.12,VWS V14.00,2013-04-06 18:40:00,
2013-04-06 14:43:00,46.2,7.4,30.30,ESE,112,8.5,10.3,20,5.14,,---,38.12,VWS V14.00,2013-04-06 18:43:00,
2013-04-06 14:44:00,46.0,7.2,30.30,SSE,158,2.5,10.1,20,5.14,,---,38.12,VWS V14.00,2013-04-06 18:44:00,
2013-04-06 14:47:00,46.2,7.4,30.30,SSE,158,6.5,9.6,20,5.14,,---,38.12,VWS V14.00,2013-04-06 18:47:00,
2013-04-06 14:49:00,45.9,7.1,30.30,SSE,158,8.5,12.8,20,5.14,,---,38.12,VWS V14.00,2013-04-06 18:49:00,
2013-04-06 14:51:00,45.9,7.1,30.30,SSE,158,5.6,9.6,20,5.14,,---,38.12,VWS V14.00,2013-04-06 18:51:00,
2013-04-06 14:55:00,45.9,7.1,30.30,SSE,158,10.7,10.7,20,5.14,,---,38.12,VWS V14.00,2013-04-06 18:55:00,
2013-04-06 14:58:00,46.0,7.2,30.30,SE,135,5.4,8.7,20,5.14,,---,38.12,VWS V14.00,2013-04-06 18:58:00,
2013-04-06 15:02:00,46.0,7.2,30.30,SSW,202,7.4,8.1,20,5.14,,---,38.12,VWS V14.00,2013-04-06 19:02:00,
2013-04-06 15:04:00,46.6,6.5,30.30,SSW,202,3.1,6.5,19,5.14,,---,38.12,VWS V14.00,2013-04-06 19:04:00,
2013-04-06 15:05:00,46.4,6.4,30.30,SSW,202,4.0,6.5,19,5.14,,---,38.12,VWS V14.00,2013-04-06 19:05:00,
2013-04-06 15:08:00,46.8,6.7,30.30,SSE,158,7.6,7.6,19,5.14,,---,38.12,VWS V14.00,2013-04-06 19:08:00,
2013-04-06 15:12:00,46.0,7.2,30.30,SSW,202,9.8,9.8,20,5.14,,---,38.12,VWS V14.00,2013-04-06 19:12:00,
2013-04-06 15:13:00,46.2,7.4,30.30,SSE,158,4.0,9.8,20,5.14,,---,38.12,VWS V14.00,2013-04-06 19:13:00,
2013-04-06 15:14:00,46.2,7.4,30.30,South,180,5.6,6.7,20,5.14,,---,38.12,VWS V14.00,2013-04-06 19:14:00,
2013-04-06 15:17:00,46.2,7.4,30.30,South,180,5.6,8.7,20,5.14,,---,38.12,VWS V14.00,2013-04-06 19:17:00,
2013-04-06 15:19:00,46.0,7.2,30.30,SSW,202,7.8,9.6,20,5.14,,---,38.12,VWS V14.00,2013-04-06 19:19:00,
2013-04-06 15:20:00,46.2,7.4,30.30,ESE,112,6.0,7.8,20,5.14,,---,38.12,VWS V14.00,2013-04-06 19:20:00,
2013-04-06 15:23:00,46.0,7.2,30.30,SE,135,3.4,8.5,20,5.14,,---,38.12,VWS V14.00,2013-04-06 19:23:00,
2013-04-06 15:26:00,46.9,6.8,30.30,SSW,202,6.3,6.9,19,5.14,,---,38.12,VWS V14.00,2013-04-06 19:26:00,
2013-04-06 15:27:00,46.4,6.4,30.30,SSE,158,10.1,13.4,19,5.14,,---,38.12,VWS V14.00,2013-04-06 19:27:00,
2013-04-06 15:30:00,46.4,6.4,30.30,South,180,6.9,8.1,19,5.14,,---,38.12,VWS V14.00,2013-04-06 19:30:00,
2013-04-06 15:32:00,45.9,7.1,30.30,SW,225,7.6,10.3,20,5.14,,---,38.12,VWS V14.00,2013-04-06 19:32:00,
2013-04-06 15:35:00,45.5,6.8,30.30,ESE,112,8.7,11.4,20,5.14,,---,38.12,VWS V14.00,2013-04-06 19:35:00,
2013-04-06 15:36:00,45.9,7.1,30.30,SSE,158,7.2,7.8,20,5.14,,---,38.12,VWS V14.00,2013-04-06 19:36:00,
2013-04-06 15:37:00,46.0,7.2,30.30,South,180,6.5,7.2,20,5.14,,---,38.12,VWS V14.00,2013-04-06 19:37:00,
2013-04-06 15:39:00,46.6,6.5,30.30,SSE,158,2.9,8.7,19,5.14,,---,38.12,VWS V14.00,2013-04-06 19:39:00,
2013-04-06 15:44:00,46.0,7.2,30.30,SW,225,5.6,8.1,20,5.14,,---,38.12,VWS V14.00,2013-04-06 19:44:00,
2013-04-06 15:46:00,46.0,7.2,30.30,SE,135,2.9,7.4,20,5.14,,---,38.12,VWS V14.00,2013-04-06 19:46:00,
2013-04-06 15:47:00,46.6,6.5,30.30,SSE,158,4.0,7.8,19,5.14,,---,38.12,VWS V14.00,2013-04-06 19:47:00,
2013-04-06 15:49:00,45.7,6.9,30.30,SSE,158,12.3,12.5,20,5.14,,---,38.12,VWS V14.00,2013-04-06 19:49:00,
2013-04-06 15:52:00,45.7,6.9,30.30,SSE,158,6.7,7.8,20,5.14,,---,38.12,VWS V14.00,2013-04-06 19:52:00,
2013-04-06 15:55:00,46.0,7.2,30.30,SSE,158,10.7,10.7,20,5.14,,---,38.12,VWS V14.00,2013-04-06 19:55:00,
2013-04-06 15:58:00,45.3,6.6,30.30,SSE,158,7.8,9.2,20,5.14,,---,38.12,VWS V14.00,2013-04-06 19:58:00,
2013-04-06 16:01:00,45.3,6.6,30.30,SSE,158,7.6,8.7,20,5.14,,---,38.12,VWS V14.00,2013-04-06 20:01:00,
2013-04-06 16:02:00,45.7,6.9,30.30,SSE,158,8.1,8.1,20,5.14,,---,38.12,VWS V14.00,2013-04-06 20:02:00,
2013-04-06 16:05:00,45.1,6.5,30.30,South,180,9.8,14.1,20,5.14,,---,38.12,VWS V14.00,2013-04-06 20:05:00,
2013-04-06 16:08:00,45.1,6.5,30.30,South,180,8.7,8.7,20,5.14,,---,38.12,VWS V14.00,2013-04-06 20:08:00,
2013-04-06 16:12:00,45.3,6.6,30.30,SSE,158,6.0,9.8,20,5.14,,---,38.12,VWS V14.00,2013-04-06 20:12:00,
2013-04-06 16:14:00,45.5,6.8,30.30,SSE,158,4.3,7.6,20,5.14,,---,38.12,VWS V14.00,2013-04-06 20:14:00,
2013-04-06 16:17:00,45.7,6.9,30.30,SE,135,11.0,12.1,20,5.14,,---,38.12,VWS V14.00,2013-04-06 20:17:00,
2013-04-06 16:19:00,45.5,6.8,30.30,SSE,158,7.4,7.8,20,5.14,,---,38.12,VWS V14.00,2013-04-06 20:19:00,
2013-04-06 16:23:00,45.5,6.8,30.30,SSE,158,8.7,12.5,20,5.14,,---,38.12,VWS V14.00,2013-04-06 20:23:00,
2013-04-06 16:24:00,45.5,6.8,30.30,SE,135,7.2,8.7,20,5.14,,---,38.12,VWS V14.00,2013-04-06 20:24:00,
2013-04-06 16:25:00,45.5,6.8,30.30,South,180,4.9,5.8,20,5.14,,---,38.12,VWS V14.00,2013-04-06 20:25:00,
2013-04-06 16:27:00,45.3,6.6,30.30,SSW,202,9.6,10.1,20,5.14,,---,38.12,VWS V14.00,2013-04-06 20:27:00,
2013-04-06 16:29:00,45.1,6.5,30.30,SSW,202,5.6,9.6,20,5.14,,---,38.12,VWS V14.00,2013-04-06 20:29:00,
2013-04-06 16:30:00,45.5,6.8,30.30,SSE,158,8.1,8.7,20,5.14,,---,38.12,VWS V14.00,2013-04-06 20:30:00,
2013-04-06 16:35:00,45.5,6.8,30.30,SE,135,5.4,11.0,20,5.14,,---,38.12,VWS V14.00,2013-04-06 20:35:00,
2013-04-06 16:37:00,45.7,6.9,30.30,SSE,158,6.3,6.3,20,5.14,,---,38.12,VWS V14.00,2013-04-06 20:37:00,
2013-04-06 16:41:00,45.5,6.8,30.30,SSW,202,8.1,10.1,20,5.14,,---,38.12,VWS V14.00,2013-04-06 20:41:00,
2013-04-06 16:42:00,45.5,6.8,30.30,SE,135,4.7,8.1,20,5.14,,---,38.12,VWS V14.00,2013-04-06 20:42:00,
2013-04-06 16:47:00,45.3,6.6,30.30,South,180,8.7,10.1,20,5.14,,---,38.12,VWS V14.00,2013-04-06 20:47:00,
2013-04-06 16:48:00,45.5,6.8,30.30,SE,135,9.2,9.2,20,5.14,,---,38.12,VWS V14.00,2013-04-06 20:48:00,
2013-04-06 16:50:00,45.5,6.8,30.30,SSW,202,5.6,9.2,20,5.14,,---,38.12,VWS V14.00,2013-04-06 20:50:00,
2013-04-06 16:53:00,45.5,6.8,30.30,SSW,202,8.7,8.7,20,5.14,,---,38.12,VWS V14.00,2013-04-06 20:53:00,
2013-04-06 16:55:00,45.3,6.6,30.30,SE,135,10.3,10.3,20,5.14,,---,38.12,VWS V14.00,2013-04-06 20:55:00,
2013-04-06 16:56:00,45.1,6.5,30.30,SSE,158,7.4,9.6,20,5.14,,---,38.12,VWS V14.00,2013-04-06 20:56:00,
2013-04-06 16:59:00,45.1,6.5,30.30,South,180,7.6,7.6,20,5.14,,---,38.12,VWS V14.00,2013-04-06 20:59:00,
2013-04-06 17:00:00,44.8,6.2,30.30,SSW,202,6.9,10.7,20,5.14,,---,38.12,VWS V14.00,2013-04-06 21:00:00,
2013-04-06 17:01:00,45.1,6.5,30.30,South,180,12.1,12.1,20,5.14,,---,38.12,VWS V14.00,2013-04-06 21:01:00,
2013-04-06 17:07:00,44.8,6.2,30.30,SSE,158,8.5,10.5,20,5.14,,---,38.12,VWS V14.00,2013-04-06 21:07:00,
2013-04-06 17:09:00,44.8,6.2,30.30,SSE,158,15.2,15.2,20,5.14,,---,38.12,VWS V14.00,2013-04-06 21:09:00,
2013-04-06 17:10:00,44.2,5.7,30.30,SSE,158,3.8,15.4,20,5.14,,---,38.12,VWS V14.00,2013-04-06 21:10:00,
2013-04-06 17:12:00,44.8,6.2,30.30,SSE,158,11.0,11.0,20,5.14,,---,38.12,VWS V14.00,2013-04-06 21:12:00,
2013-04-06 17:16:00,44.6,6.0,30.30,SSE,158,10.3,10.7,20,5.14,,---,38.12,VWS V14.00,2013-04-06 21:16:00,
2013-04-06 17:18:00,45.0,6.3,30.30,SSE,158,8.1,8.7,20,5.14,,---,38.12,VWS V14.00,2013-04-06 21:18:00,
2013-04-06 17:23:00,45.0,6.3,30.30,South,180,11.2,11.2,20,5.14,,---,38.12,VWS V14.00,2013-04-06 21:23:00,
2013-04-06 17:24:00,45.0,6.3,30.30,South,180,12.3,12.3,20,5.14,,---,38.12,VWS V14.00,2013-04-06 21:24:00,
2013-04-06 17:25:00,44.8,6.2,30.30,South,180,10.5,12.3,20,5.14,,---,38.12,VWS V14.00,2013-04-06 21:25:00,
2013-04-06 17:28:00,44.8,6.2,30.30,South,180,7.6,7.6,20,5.14,,---,38.12,VWS V14.00,2013-04-06 21:28:00,
2013-04-06 17:29:00,44.8,6.2,30.30,SSE,158,4.3,7.6,20,5.14,,---,38.12,VWS V14.00,2013-04-06 21:29:00,
2013-04-06 17:31:00,44.6,6.0,30.30,South,180,7.4,8.7,20,5.14,,---,38.12,VWS V14.00,2013-04-06 21:31:00,
2013-04-06 17:34:00,44.2,5.7,30.30,South,180,8.1,8.1,20,5.14,,---,38.12,VWS V14.00,2013-04-06 21:34:00,
2013-04-06 17:35:00,44.2,5.7,30.33,SSE,158,7.6,9.4,20,5.14,,---,38.12,VWS V14.00,2013-04-06 21:35:00,
2013-04-06 17:38:00,44.8,6.2,30.33,SSE,158,4.0,6.5,20,5.14,,---,38.12,VWS V14.00,2013-04-06 21:38:00,
2013-04-06 17:40:00,45.1,6.5,30.33,SSE,158,6.3,7.6,20,5.14,,---,38.12,VWS V14.00,2013-04-06 21:40:00,
2013-04-06 17:42:00,45.0,6.3,30.33,SSE,158,7.2,7.2,20,5.14,,---,38.12,VWS V14.00,2013-04-06 21:42:00,
2013-04-06 17:43:00,44.6,6.0,30.33,South,180,6.5,6.5,20,5.14,,---,38.12,VWS V14.00,2013-04-06 21:43:00,
2013-04-06 17:45:00,45.1,6.5,30.33,SSE,158,3.6,3.6,20,5.14,,---,38.12,VWS V14.00,2013-04-06 21:45:00,
2013-04-06 17:48:00,45.1,6.5,30.33,South,180,2.0,7.8,20,5.14,,---,38.12,VWS V14.00,2013-04-06 21:48:00,
2013-04-06 17:50:00,45.3,6.6,30.33,SSW,202,2.9,5.8,20,5.14,,---,38.12,VWS V14.00,2013-04-06 21:50:00,
2013-04-06 17:54:00,45.1,6.5,30.33,SSW,202,6.0,6.0,20,5.14,,---,38.12,VWS V14.00,2013-04-06 21:54:00,
2013-04-06 17:56:00,44.8,6.2,30.33,SSW,202,6.5,6.5,20,5.14,,---,38.12,VWS V14.00,2013-04-06 21:56:00,
2013-04-06 18:00:00,44.4,5.9,30.33,SSE,158,10.3,10.5,20,5.14,,---,38.12,VWS V14.00,2013-04-06 22:00:00,
2013-04-06 18:01:00,44.4,5.9,30.33,ESE,112,9.6,10.3,20,5.14,,---,38.12,VWS V14.00,2013-04-06 22:01:00,
2013-04-06 18:03:00,44.6,6.0,30.33,SSE,158,2.7,9.6,20,5.14,,---,38.12,VWS V14.00,2013-04-06 22:03:00,
2013-04-06 18:04:00,44.4,5.9,30.33,SW,225,6.3,7.4,20,5.14,,---,38.12,VWS V14.00,2013-04-06 22:04:00,
2013-04-06 18:07:00,44.4,5.9,30.30,SSE,158,4.9,6.5,20,5.14,,---,38.12,VWS V14.00,2013-04-06 22:07:00,
2013-04-06 18:08:00,44.4,5.9,30.30,SSW,202,4.9,7.4,20,5.14,,---,38.12,VWS V14.00,2013-04-06 22:08:00,
2013-04-06 18:11:00,44.6,6.0,30.30,SSW,202,7.2,7.4,20,5.14,,---,38.12,VWS V14.00,2013-04-06 22:11:00,
2013-04-06 18:14:00,44.6,6.0,30.30,SSE,158,8.1,8.1,20,5.14,,---,38.12,VWS V14.00,2013-04-06 22:14:00,
2013-04-06 18:15:00,44.4,5.9,30.30,SSE,158,5.8,8.5,20,5.14,,---,38.12,VWS V14.00,2013-04-06 22:15:00,
2013-04-06 18:17:00,44.2,5.7,30.30,WSW,248,3.6,6.3,20,5.14,,---,38.12,VWS V14.00,2013-04-06 22:17:00,
2013-04-06 18:21:00,44.2,5.7,30.30,SSE,158,4.7,6.3,20,5.14,,---,38.12,VWS V14.00,2013-04-06 22:21:00,
2013-04-06 18:22:00,44.4,5.9,30.30,SSE,158,7.2,7.2,20,5.14,,---,38.12,VWS V14.00,2013-04-06 22:22:00,
2013-04-06 18:27:00,43.9,5.4,30.30,SSW,202,5.6,6.3,20,5.14,,---,38.12,VWS V14.00,2013-04-06 22:27:00,
2013-04-06 18:31:00,43.7,5.3,30.30,South,180,8.5,11.0,20,5.14,,---,38.12,VWS V14.00,2013-04-06 22:31:00,
2013-04-06 18:33:00,43.5,5.1,30.30,SE,135,3.4,5.8,20,5.14,,---,38.12,VWS V14.00,2013-04-06 22:33:00,
2013-04-06 18:34:00,43.7,5.3,30.33,SSW,202,2.7,3.4,20,5.14,,---,38.12,VWS V14.00,2013-04-06 22:34:00,
2013-04-06 18:38:00,43.3,5.0,30.33,SW,225,2.9,9.6,20,5.14,,---,38.12,VWS V14.00,2013-04-06 22:38:00,
2013-04-06 18:40:00,43.3,5.0,30.33,SSW,202,3.1,3.1,20,5.14,,---,38.12,VWS V14.00,2013-04-06 22:40:00,
2013-04-06 18:41:00,43.3,5.0,30.33,SSE,158,1.6,3.4,20,5.14,,---,38.12,VWS V14.00,2013-04-06 22:41:00,
2013-04-06 18:43:00,43.3,5.0,30.33,SSE,158,3.6,6.0,20,5.14,,---,38.12,VWS V14.00,2013-04-06 22:43:00,
2013-04-06 18:46:00,43.0,4.7,30.33,SSE,158,11.0,11.0,20,5.14,,---,38.12,VWS V14.00,2013-04-06 22:46:00,
2013-04-06 18:47:00,42.8,4.5,30.33,SSE,158,6.0,6.5,20,5.14,,---,38.12,VWS V14.00,2013-04-06 22:47:00,
2013-04-06 18:51:00,42.8,4.5,30.30,SSE,158,7.2,7.4,20,5.14,,---,38.12,VWS V14.00,2013-04-06 22:51:00,
2013-04-06 18:52:00,42.8,4.5,30.30,South,180,4.3,4.3,20,5.14,,---,38.12,VWS V14.00,2013-04-06 22:52:00,
2013-04-06 18:54:00,42.6,5.4,30.30,SSE,158,3.8,6.0,21,5.14,,---,38.12,VWS V14.00,2013-04-06 22:54:00,
2013-04-06 18:56:00,42.4,5.3,30.30,SSE,158,10.1,10.1,21,5.14,,---,38.12,VWS V14.00,2013-04-06 22:56:00,
2013-04-06 19:00:00,42.3,5.1,30.30,SSE,158,5.4,8.7,21,5.14,,---,38.12,VWS V14.00,2013-04-06 23:00:00,
2013-04-06 19:05:00,42.1,5.0,30.30,South,180,2.0,5.4,21,5.14,,---,38.12,VWS V14.00,2013-04-06 23:05:00,
2013-04-06 19:07:00,42.1,5.0,30.30,SSW,202,2.0,4.0,21,5.14,,---,38.12,VWS V14.00,2013-04-06 23:07:00,
2013-04-06 19:08:00,41.9,4.8,30.30,South,180,5.4,6.7,21,5.14,,---,38.12,VWS V14.00,2013-04-06 23:08:00,
2013-04-06 19:11:00,41.9,4.8,30.30,South,180,3.4,5.6,21,5.14,,---,38.12,VWS V14.00,2013-04-06 23:11:00,
2013-04-06 19:17:00,41.5,4.5,30.30,South,180,3.8,5.8,21,5.14,,---,38.12,VWS V14.00,2013-04-06 23:17:00,
2013-04-06 19:21:00,41.2,4.2,30.30,SSW,202,4.3,4.3,21,5.14,,---,38.12,VWS V14.00,2013-04-06 23:21:00,
2013-04-06 19:24:00,41.2,4.2,30.30,South,180,2.7,2.7,21,5.14,,---,38.12,VWS V14.00,2013-04-06 23:24:00,
2013-04-06 19:27:00,41.2,4.2,30.30,South,180,2.9,4.5,21,5.14,,---,38.12,VWS V14.00,2013-04-06 23:27:00,
2013-04-06 19:29:00,41.0,4.1,30.30,SSW,202,4.0,6.5,21,5.14,,---,38.12,VWS V14.00,2013-04-06 23:29:00,
2013-04-06 19:31:00,41.0,4.1,30.30,SSE,158,3.8,6.0,21,5.14,,---,38.12,VWS V14.00,2013-04-06 23:31:00,
2013-04-06 19:34:00,41.0,4.1,30.30,South,180,3.6,6.3,21,5.14,,---,38.12,VWS V14.00,2013-04-06 23:34:00,
2013-04-06 19:38:00,41.0,4.1,30.30,South,180,4.9,4.9,21,5.14,,---,38.12,VWS V14.00,2013-04-06 23:38:00,
2013-04-06 19:39:00,41.0,4.1,30.30,South,180,3.4,4.9,21,5.14,,---,38.12,VWS V14.00,2013-04-06 23:39:00,
2013-04-06 19:41:00,40.8,3.9,30.30,South,180,2.9,4.0,21,5.14,,---,38.12,VWS V14.00,2013-04-06 23:41:00,
2013-04-06 19:44:00,40.6,3.8,30.30,SSW,202,1.3,1.3,21,5.14,,---,38.12,VWS V14.00,2013-04-06 23:44:00,
2013-04-06 19:45:00,40.6,3.8,30.30,SSW,202,5.4,5.4,21,5.14,,---,38.12,VWS V14.00,2013-04-06 23:45:00,
2013-04-06 19:46:00,40.6,3.8,30.30,SSW,202,0.0,5.4,21,5.14,,---,38.12,VWS V14.00,2013-04-06 23:46:00,
2013-04-06 19:49:00,40.6,3.8,30.30,SSE,158,4.9,8.5,21,5.14,,---,38.12,VWS V14.00,2013-04-06 23:49:00,
2013-04-06 19:50:00,40.6,3.8,30.30,SSE,158,3.8,5.6,21,5.14,,---,38.12,VWS V14.00,2013-04-06 23:50:00,
2013-04-06 19:53:00,40.6,3.8,30.30,South,180,2.7,4.0,21,5.14,,---,38.12,VWS V14.00,2013-04-06 23:53:00,
2013-04-06 19:56:00,40.5,3.6,30.30,SSW,202,3.1,3.8,21,5.14,,---,38.12,VWS V14.00,2013-04-06 23:56:00,
2013-04-06 19:57:00,40.5,3.6,30.30,SSW,202,2.9,5.8,21,5.14,,---,38.12,VWS V14.00,2013-04-06 23:57:00,
2013-04-06 20:00:00,40.5,3.6,30.30,SSW,202,6.3,6.3,21,5.14,,---,38.12,VWS V14.00,2013-04-07 00:00:00,
2013-04-06 20:02:00,40.5,3.6,30.30,South,180,6.5,6.5,21,5.14,,---,38.12,VWS V14.00,2013-04-07 00:02:00,
2013-04-06 20:03:00,40.5,3.6,30.30,SSW,202,3.4,6.5,21,5.14,,---,38.12,VWS V14.00,2013-04-07 00:03:00,
2013-04-06 20:04:00,40.5,3.6,30.33,SSW,202,1.1,4.7,21,5.14,,---,38.12,VWS V14.00,2013-04-07 00:04:00,
2013-04-06 20:10:00,40.5,3.6,30.33,SSW,202,2.0,3.4,21,5.14,,---,38.12,VWS V14.00,2013-04-07 00:10:00,
2013-04-06 20:11:00,40.5,3.6,30.33,SSW,202,2.5,4.3,21,5.14,,---,38.12,VWS V14.00,2013-04-07 00:11:00,
2013-04-06 20:17:00,40.5,3.6,30.33,SSE,158,3.1,3.8,21,5.14,,---,38.12,VWS V14.00,2013-04-07 00:17:00,
2013-04-06 20:20:00,40.5,3.6,30.30,South,180,2.0,4.0,21,5.14,,---,38.12,VWS V14.00,2013-04-07 00:20:00,
2013-04-06 20:22:00,40.3,3.5,30.30,South,180,2.5,3.8,21,5.14,,---,38.12,VWS V14.00,2013-04-07 00:22:00,
2013-04-06 20:24:00,40.3,3.5,30.30,SSW,202,2.7,2.7,21,5.14,,---,38.12,VWS V14.00,2013-04-07 00:24:00,
2013-04-06 20:26:00,40.3,3.5,30.30,South,180,2.7,4.0,21,5.14,,---,38.12,VWS V14.00,2013-04-07 00:26:00,
2013-04-06 20:27:00,40.3,3.5,30.30,SSW,202,1.6,4.0,21,5.14,,---,38.12,VWS V14.00,2013-04-07 00:27:00,
2013-04-06 20:28:00,40.3,3.5,30.30,SSW,202,2.9,3.6,21,5.14,,---,38.12,VWS V14.00,2013-04-07 00:28:00,
2013-04-06 20:32:00,40.3,3.5,30.30,SSW,202,3.8,3.8,21,5.14,,---,38.12,VWS V14.00,2013-04-07 00:32:00,
2013-04-06 20:33:00,40.3,3.5,30.30,SSW,202,0.0,4.0,21,5.14,,---,38.12,VWS V14.00,2013-04-07 00:33:00,
2013-04-06 20:35:00,40.3,3.5,30.30,SSW,202,4.0,4.7,21,5.14,,---,38.12,VWS V14.00,2013-04-07 00:35:00,
2013-04-06 20:39:00,40.5,3.6,30.30,SSE,158,2.7,6.0,21,5.14,,---,38.12,VWS V14.00,2013-04-07 00:39:00,
2013-04-06 20:44:00,40.5,3.6,30.30,SSW,202,2.5,3.6,21,5.14,,---,38.12,VWS V14.00,2013-04-07 00:44:00,
2013-04-06 20:45:00,40.3,3.5,30.30,SSW,202,2.0,2.7,21,5.14,,---,38.12,VWS V14.00,2013-04-07 00:45:00,
2013-04-06 20:49:00,40.3,3.5,30.30,SSW,202,2.5,3.6,21,5.14,,---,38.12,VWS V14.00,2013-04-07 00:49:00,
2013-04-06 20:50:00,40.3,3.5,30.30,SSW,202,2.7,2.7,21,5.14,,---,38.12,VWS V14.00,2013-04-07 00:50:00,
2013-04-06 20:52:00,40.3,3.5,30.30,SSW,202,2.2,2.9,21,5.14,,---,38.12,VWS V14.00,2013-04-07 00:52:00,
2013-04-06 20:55:00,40.3,3.5,30.30,South,180,3.1,6.0,21,5.14,,---,38.12,VWS V14.00,2013-04-07 00:55:00,
2013-04-06 20:57:00,40.3,3.5,30.30,SSE,158,2.7,2.9,21,5.14,,---,38.12,VWS V14.00,2013-04-07 00:57:00,
2013-04-06 20:59:00,40.3,3.5,30.30,South,180,2.0,4.0,21,5.14,,---,38.12,VWS V14.00,2013-04-07 00:59:00,
2013-04-06 21:00:00,40.5,3.6,30.30,South,180,4.3,5.4,21,5.14,,---,38.12,VWS V14.00,2013-04-07 01:00:00,
2013-04-06 21:04:00,40.5,3.6,30.30,SSW,202,5.4,5.4,21,5.14,,---,38.12,VWS V14.00,2013-04-07 01:04:00,
2013-04-06 21:06:00,40.5,3.6,30.33,SSW,202,2.5,6.5,21,5.14,,---,38.12,VWS V14.00,2013-04-07 01:06:00,
2013-04-06 21:10:00,40.5,3.6,30.33,South,180,2.9,3.1,21,5.14,,---,38.12,VWS V14.00,2013-04-07 01:10:00,
2013-04-06 21:13:00,40.5,3.6,30.33,SW,225,4.0,4.0,21,5.14,,---,38.12,VWS V14.00,2013-04-07 01:13:00,
2013-04-06 21:15:00,40.5,3.6,30.33,SSW,202,2.0,2.7,21,5.14,,---,38.12,VWS V14.00,2013-04-07 01:15:00,
2013-04-06 21:18:00,40.3,3.5,30.33,South,180,2.2,2.2,21,5.14,,---,38.12,VWS V14.00,2013-04-07 01:18:00,
2013-04-06 21:19:00,40.3,3.5,30.33,SSW,202,1.6,2.9,21,5.14,,---,38.12,VWS V14.00,2013-04-07 01:19:00,
2013-04-06 21:20:00,40.5,3.6,30.33,South,180,2.9,4.9,21,5.14,,---,38.12,VWS V14.00,2013-04-07 01:20:00,
2013-04-06 21:25:00,40.3,3.5,30.33,SSE,158,3.8,3.8,21,5.14,,---,38.12,VWS V14.00,2013-04-07 01:25:00,
2013-04-06 21:27:00,40.3,3.5,30.33,WSW,248,4.7,4.9,21,5.14,,---,38.12,VWS V14.00,2013-04-07 01:27:00,
2013-04-06 21:31:00,40.3,3.5,30.33,SSW,202,2.0,3.4,21,5.14,,---,38.12,VWS V14.00,2013-04-07 01:31:00,
2013-04-06 21:32:00,40.3,3.5,30.33,South,180,3.4,3.4,21,5.14,,---,38.12,VWS V14.00,2013-04-07 01:32:00,
2013-04-06 21:35:00,40.3,3.5,30.33,SSW,202,3.6,3.6,21,5.14,,---,38.12,VWS V14.00,2013-04-07 01:35:00,
2013-04-06 21:38:00,40.3,3.5,30.33,South,180,2.5,4.0,21,5.14,,---,38.12,VWS V14.00,2013-04-07 01:38:00,
2013-04-06 21:40:00,40.3,3.5,30.33,SSW,202,2.5,3.8,21,5.14,,---,38.12,VWS V14.00,2013-04-07 01:40:00,
2013-04-06 21:42:00,40.3,3.5,30.33,South,180,0.0,4.3,21,5.14,,---,38.12,VWS V14.00,2013-04-07 01:42:00,
2013-04-06 21:43:00,40.3,3.5,30.33,South,180,2.9,2.9,21,5.14,,---,38.12,VWS V14.00,2013-04-07 01:43:00,
2013-04-06 21:47:00,40.3,3.5,30.33,SSW,202,2.0,4.3,21,5.14,,---,38.12,VWS V14.00,2013-04-07 01:47:00,
2013-04-06 21:49:00,40.3,3.5,30.33,SSW,202,1.1,3.1,21,5.14,,---,38.12,VWS V14.00,2013-04-07 01:49:00,
2013-04-06 21:50:00,40.3,3.5,30.33,SSE,158,4.3,4.3,21,5.14,,---,38.12,VWS V14.00,2013-04-07 01:50:00,
2013-04-06 21:55:00,40.1,3.3,30.33,SSW,202,1.1,2.7,21,5.14,,---,38.12,VWS V14.00,2013-04-07 01:55:00,
2013-04-06 21:57:00,40.1,3.3,30.33,SSW,202,1.1,1.1,21,5.14,,---,38.12,VWS V14.00,2013-04-07 01:57:00,
2013-04-06 21:58:00,40.1,3.3,30.33,SSW,202,1.6,3.8,21,5.14,,---,38.12,VWS V14.00,2013-04-07 01:58:00,
2013-04-06 22:02:00,40.1,3.3,30.33,SSW,202,6.5,6.5,21,5.14,,---,38.12,VWS V14.00,2013-04-07 02:02:00,
2013-04-06 22:04:00,40.1,3.3,30.33,SSW,202,5.6,5.8,21,5.14,,---,38.12,VWS V14.00,2013-04-07 02:04:00,
2013-04-06 22:06:00,40.3,3.5,30.33,South,180,2.9,4.3,21,5.14,,---,38.12,VWS V14.00,2013-04-07 02:06:00,
2013-04-06 22:10:00,40.1,3.3,30.33,SSW,202,2.5,2.9,21,5.14,,---,38.12,VWS V14.00,2013-04-07 02:10:00,
2013-04-06 22:13:00,40.3,3.5,30.33,SSW,202,1.1,3.1,21,5.14,,---,38.12,VWS V14.00,2013-04-07 02:13:00,
2013-04-06 22:14:00,40.1,3.3,30.33,SSW,202,2.7,2.9,21,5.14,,---,38.12,VWS V14.00,2013-04-07 02:14:00,
2013-04-06 22:16:00,40.1,3.3,30.33,SSW,202,1.3,3.4,21,5.14,,---,38.12,VWS V14.00,2013-04-07 02:16:00,
2013-04-06 22:20:00,40.1,3.3,30.33,South,180,3.1,4.0,21,5.14,,---,38.12,VWS V14.00,2013-04-07 02:20:00,
2013-04-06 22:21:00,40.1,3.3,30.33,SSW,202,3.4,3.4,21,5.14,,---,38.12,VWS V14.00,2013-04-07 02:21:00,
2013-04-06 22:22:00,40.1,3.3,30.33,SSW,202,2.2,3.6,21,5.14,,---,38.12,VWS V14.00,2013-04-07 02:22:00,
2013-04-06 22:24:00,40.1,3.3,30.33,SSW,202,3.6,4.3,21,5.14,,---,38.12,VWS V14.00,2013-04-07 02:24:00,
2013-04-06 22:27:00,40.1,3.3,30.33,SSW,202,2.9,2.9,21,5.14,,---,38.12,VWS V14.00,2013-04-07 02:27:00,
2013-04-06 22:30:00,40.1,3.3,30.33,SSW,202,4.3,4.3,21,5.14,,---,38.12,VWS V14.00,2013-04-07 02:30:00,
2013-04-06 22:31:00,40.3,3.5,30.33,South,180,4.0,4.3,21,5.14,,---,38.12,VWS V14.00,2013-04-07 02:31:00,
2013-04-06 22:36:00,40.3,3.5,30.33,South,180,3.4,5.6,21,5.14,,---,38.12,VWS V14.00,2013-04-07 02:36:00,
2013-04-06 22:38:00,40.3,3.5,30.33,SSW,202,1.6,2.9,21,5.14,,---,38.12,VWS V14.00,2013-04-07 02:38:00,
2013-04-06 22:40:00,40.3,3.5,30.33,SSW,202,1.3,4.9,21,5.14,,---,38.12,VWS V14.00,2013-04-07 02:40:00,
2013-04-06 22:42:00,40.3,3.5,30.33,SSW,202,2.0,3.1,21,5.14,,---,38.12,VWS V14.00,2013-04-07 02:42:00,
2013-04-06 22:44:00,40.3,3.5,30.33,South,180,4.3,4.3,21,5.14,,---,38.12,VWS V14.00,2013-04-07 02:44:00,
2013-04-06 22:46:00,40.3,3.5,30.33,SSW,202,2.7,4.0,21,5.14,,---,38.12,VWS V14.00,2013-04-07 02:46:00,
2013-04-06 22:47:00,40.3,3.5,30.33,SSW,202,4.7,4.7,21,5.14,,---,38.12,VWS V14.00,2013-04-07 02:47:00,
2013-04-06 22:50:00,40.5,3.6,30.33,SSW,202,3.4,3.4,21,5.14,,---,38.12,VWS V14.00,2013-04-07 02:50:00,
2013-04-06 22:52:00,40.5,3.6,30.33,South,180,1.6,3.4,21,5.14,,---,38.12,VWS V14.00,2013-04-07 02:52:00,
2013-04-06 22:55:00,40.5,3.6,30.33,SSW,202,2.0,3.8,21,5.14,,---,38.12,VWS V14.00,2013-04-07 02:55:00,
2013-04-06 22:57:00,40.3,3.5,30.33,South,180,3.4,3.4,21,5.14,,---,38.12,VWS V14.00,2013-04-07 02:57:00,
2013-04-06 23:01:00,40.5,3.6,30.33,SSW,202,2.5,3.1,21,5.14,,---,38.12,VWS V14.00,2013-04-07 03:01:00,
2013-04-06 23:03:00,40.5,3.6,30.33,SSW,202,0.0,2.5,21,5.14,,---,38.12,VWS V14.00,2013-04-07 03:03:00,
2013-04-06 23:05:00,40.5,3.6,30.33,South,180,3.1,4.3,21,5.14,,---,38.12,VWS V14.00,2013-04-07 03:05:00,
2013-04-06 23:06:00,40.5,3.6,30.33,SW,225,0.0,6.3,21,5.14,,---,38.12,VWS V14.00,2013-04-07 03:06:00,
2013-04-06 23:08:00,40.5,3.6,30.33,SSW,202,0.0,0.0,21,5.14,,---,38.12,VWS V14.00,2013-04-07 03:08:00,
2013-04-06 23:12:00,40.5,3.6,30.33,SE,135,5.4,5.4,21,5.14,,---,38.12,VWS V14.00,2013-04-07 03:12:00,
2013-04-06 23:16:00,40.5,3.6,30.33,SSW,202,2.7,6.3,21,5.14,,---,38.12,VWS V14.00,2013-04-07 03:16:00,
2013-04-06 23:20:00,40.3,3.5,30.33,SSW,202,1.1,3.4,21,5.14,,---,38.12,VWS V14.00,2013-04-07 03:20:00,
2013-04-06 23:21:00,40.3,3.5,30.33,SSW,202,3.8,3.8,21,5.14,,---,38.12,VWS V14.00,2013-04-07 03:21:00,
2013-04-06 23:23:00,40.3,3.5,30.33,SSW,202,2.9,4.9,21,5.14,,---,38.12,VWS V14.00,2013-04-07 03:23:00,
2013-04-06 23:26:00,40.3,3.5,30.33,SSW,202,2.7,2.7,21,5.14,,---,38.12,VWS V14.00,2013-04-07 03:26:00,
2013-04-06 23:27:00,40.3,3.5,30.33,SSW,202,2.9,4.3,21,5.14,,---,38.12,VWS V14.00,2013-04-07 03:27:00,
2013-04-06 23:29:00,40.3,3.5,30.33,SSW,202,3.8,4.3,21,5.14,,---,38.12,VWS V14.00,2013-04-07 03:29:00,
2013-04-06 23:32:00,40.5,3.6,30.33,SSW,202,3.4,3.6,21,5.14,,---,38.12,VWS V14.00,2013-04-07 03:32:00,
2013-04-06 23:34:00,40.5,3.6,30.30,SSW,202,2.9,6.5,21,5.14,,---,38.12,VWS V14.00,2013-04-07 03:34:00,
2013-04-06 23:37:00,40.5,3.6,30.30,SSW,202,4.0,4.0,21,5.14,,---,38.12,VWS V14.00,2013-04-07 03:37:00,
2013-04-06 23:38:00,40.5,3.6,30.30,SSW,202,3.6,4.0,21,5.14,,---,38.12,VWS V14.00,2013-04-07 03:38:00,
2013-04-06 23:40:00,40.5,3.6,30.30,SSW,202,3.6,3.6,21,5.14,,---,38.12,VWS V14.00,2013-04-07 03:40:00,
2013-04-06 23:43:00,40.5,3.6,30.30,SW,225,6.3,6.3,21,5.14,,---,38.12,VWS V14.00,2013-04-07 03:43:00,
2013-04-06 23:45:00,40.5,3.6,30.30,WSW,248,0.0,3.8,21,5.14,,---,38.12,VWS V14.00,2013-04-07 03:45:00,
2013-04-06 23:47:00,40.5,3.6,30.30,SSW,202,2.5,2.9,21,5.14,,---,38.12,VWS V14.00,2013-04-07 03:47:00,
2013-04-06 23:49:00,40.5,3.6,30.30,SW,225,2.5,3.8,21,5.14,,---,38.12,VWS V14.00,2013-04-07 03:49:00,
2013-04-06 23:52:00,40.3,3.5,30.30,SW,225,1.6,1.6,21,5.14,,---,38.12,VWS V14.00,2013-04-07 03:52:00,
2013-04-06 23:54:00,40.5,5.6,30.30,SW,225,4.0,4.9,23,5.14,,---,38.12,VWS V14.00,2013-04-07 03:54:00,
2013-04-06 23:55:00,40.5,5.6,30.30,WSW,248,0.9,3.6,23,5.14,,---,38.12,VWS V14.00,2013-04-07 03:55:00,
2013-04-06 23:57:00,40.5,5.6,30.30,South,180,4.0,4.0,23,5.14,,---,38.12,VWS V14.00,2013-04-07 03:57:00,